createdAt,value
2019-01-02T00:01:18.581Z,5.23
2019-01-02T00:03:48.998Z,6.47
2019-01-02T00:06:19.580Z,7.13
2019-01-02T00:08:49.866Z,6.60
2019-01-02T00:11:19.738Z,6.53
2019-01-02T00:13:49.956Z,5.33
2019-01-02T00:16:19.847Z,6.30
2019-01-02T00:18:49.970Z,6.40
2019-01-02T00:21:19.866Z,6.90
2019-01-02T00:23:49.725Z,6.40
2019-01-02T00:26:19.823Z,7.70
2019-01-02T00:28:49.686Z,6.70
2019-01-02T00:31:19.910Z,7.73
2019-01-02T00:33:50.420Z,8.47
2019-01-02T00:36:20.652Z,7.20
2019-01-02T00:38:50.510Z,6.90
2019-01-02T00:41:20.540Z,7.37
2019-01-02T00:43:50.358Z,6.70
2019-01-02T00:46:20.239Z,7.50
2019-01-02T00:48:50.556Z,6.80
2019-01-02T00:51:20.442Z,7.77
2019-01-02T00:53:50.673Z,6.67
2019-01-02T00:56:20.500Z,8.17
2019-01-02T00:58:50.743Z,6.67
2019-01-02T01:01:21.081Z,7.93
2019-01-02T01:03:52.034Z,7.03
2019-01-02T01:06:21.922Z,6.50
2019-01-02T01:08:51.913Z,6.43
2019-01-02T01:11:21.746Z,6.13
2019-01-02T01:13:51.617Z,6.67
2019-01-02T01:16:21.488Z,7.50
2019-01-02T01:18:51.380Z,6.43
2019-01-02T01:21:21.235Z,7.67
2019-01-02T01:23:51.944Z,7.83
2019-01-02T01:26:21.829Z,6.40
2019-01-02T01:28:51.649Z,6.50
2019-01-02T01:31:21.703Z,8.17
2019-01-02T01:33:51.555Z,6.80
2019-01-02T01:36:22.003Z,5.97
2019-01-02T01:38:51.854Z,7.70
2019-01-02T01:41:21.809Z,7.07
2019-01-02T01:43:52.141Z,7.80
2019-01-02T01:46:21.995Z,8.67
2019-01-02T01:48:52.234Z,7.50
2019-01-02T01:51:22.078Z,7.30
2019-01-02T01:53:52.005Z,7.40
2019-01-02T01:56:22.102Z,6.87
2019-01-02T01:58:51.984Z,7.60
2019-01-02T02:01:21.875Z,9.10
2019-01-02T02:03:52.791Z,7.13
2019-01-02T02:06:22.618Z,7.43
2019-01-02T02:08:52.473Z,8.47
2019-01-02T02:11:22.589Z,5.83
2019-01-02T02:13:52.407Z,7.03
2019-01-02T02:16:23.590Z,8.97
2019-01-02T02:18:53.429Z,6.60
2019-01-02T02:21:23.278Z,6.83
2019-01-02T02:23:53.533Z,8.10
2019-01-02T02:26:23.388Z,7.23
2019-01-02T02:28:53.225Z,7.70
2019-01-02T02:31:23.697Z,7.60
2019-01-02T02:33:53.831Z,8.27
2019-01-02T02:36:24.249Z,7.73
2019-01-02T02:38:54.470Z,7.07
2019-01-02T02:41:24.695Z,7.73
2019-01-02T02:43:55.219Z,7.60
2019-01-02T02:46:25.387Z,6.17
2019-01-02T02:48:55.561Z,7.90
2019-01-02T02:51:25.843Z,6.70
2019-01-02T02:53:56.119Z,7.80
2019-01-02T02:56:26.255Z,10.20
2019-01-02T02:58:57.056Z,8.93
2019-01-02T03:01:27.182Z,8.30
2019-01-02T03:03:57.287Z,8.00
2019-01-02T03:06:27.540Z,7.87
2019-01-02T03:08:57.743Z,8.13
2019-01-02T03:11:27.656Z,7.27
2019-01-02T03:13:57.798Z,6.50
2019-01-02T03:16:27.963Z,7.20
2019-01-02T03:18:58.352Z,7.73
2019-01-02T03:21:28.468Z,6.47
2019-01-02T03:23:59.090Z,7.53
2019-01-02T03:26:28.909Z,6.60
2019-01-02T03:28:58.749Z,7.37
2019-01-02T03:31:29.309Z,6.97
2019-01-02T03:33:59.508Z,7.07
2019-01-02T03:36:29.668Z,8.57
2019-01-02T03:38:59.528Z,6.90
2019-01-02T03:41:29.513Z,7.63
2019-01-02T03:43:59.335Z,7.17
2019-01-02T03:46:29.241Z,8.17
2019-01-02T03:48:59.103Z,6.30
2019-01-02T03:51:29.262Z,7.90
2019-01-02T03:53:59.133Z,7.00
2019-01-02T03:56:29.312Z,6.00
2019-01-02T03:58:59.194Z,6.67
2019-01-02T04:01:29.330Z,7.70
2019-01-02T04:03:59.164Z,8.60
2019-01-02T04:06:29.020Z,5.40
2019-01-02T04:08:58.907Z,8.30
2019-01-02T04:11:28.770Z,6.77
2019-01-02T04:13:58.640Z,6.27
2019-01-02T04:16:28.835Z,6.40
2019-01-02T04:18:58.711Z,6.63
2019-01-02T04:21:28.956Z,5.80
2019-01-02T04:23:59.039Z,7.03
2019-01-02T04:26:29.016Z,6.93
2019-01-02T04:28:58.890Z,6.13
2019-01-02T04:31:28.829Z,7.73
2019-01-02T04:33:58.744Z,6.43
2019-01-02T04:36:28.543Z,6.10
2019-01-02T04:38:58.500Z,5.40
2019-01-02T04:41:28.365Z,6.33
2019-01-02T04:43:58.234Z,4.67
2019-01-02T04:46:28.116Z,5.70
2019-01-02T04:48:58.049Z,6.33
2019-01-02T04:51:27.934Z,5.97
2019-01-02T04:53:57.748Z,4.57
2019-01-02T04:56:27.561Z,4.63
2019-01-02T04:58:57.802Z,4.57
2019-01-02T05:01:27.675Z,4.70
2019-01-02T05:03:57.565Z,3.93
2019-01-02T05:06:27.429Z,5.10
2019-01-02T05:08:57.384Z,3.73
2019-01-02T05:11:27.223Z,4.10
2019-01-02T05:13:57.115Z,4.87
2019-01-02T05:16:27.850Z,4.30
2019-01-02T05:18:57.682Z,4.40
2019-01-02T05:21:27.799Z,5.00
2019-01-02T05:23:57.626Z,3.60
2019-01-02T05:26:27.503Z,4.63
2019-01-02T05:28:57.367Z,3.50
2019-01-02T05:31:27.482Z,3.70
2019-01-02T05:33:57.348Z,4.03
2019-01-02T05:36:27.240Z,2.67
2019-01-02T05:38:57.113Z,3.53
2019-01-02T05:41:26.960Z,4.53
2019-01-02T05:43:56.793Z,4.00
2019-01-02T05:46:26.652Z,3.70
2019-01-02T05:48:56.512Z,2.80
2019-01-02T05:51:26.344Z,4.03
2019-01-02T05:53:56.209Z,3.70
2019-01-02T05:56:26.439Z,4.63
2019-01-02T05:58:56.302Z,3.37
2019-01-02T06:01:26.171Z,3.00
2019-01-02T06:03:56.368Z,3.93
2019-01-02T06:06:26.296Z,3.47
2019-01-02T06:08:56.432Z,3.80
2019-01-02T06:11:26.499Z,4.50
2019-01-02T06:13:56.343Z,3.40
2019-01-02T06:16:26.576Z,3.67
2019-01-02T06:18:56.425Z,3.93
2019-01-02T06:21:26.624Z,4.40
2019-01-02T06:23:56.491Z,3.40
2019-01-02T06:26:26.373Z,4.07
2019-01-02T06:28:56.227Z,4.27
2019-01-02T06:31:26.332Z,4.20
2019-01-02T06:33:56.180Z,4.97
2019-01-02T06:36:27.154Z,4.77
2019-01-02T06:38:57.072Z,4.70
2019-01-02T06:41:27.219Z,4.47
2019-01-02T06:43:57.081Z,3.40
2019-01-02T06:46:27.187Z,4.40
2019-01-02T06:48:57.435Z,5.10
2019-01-02T06:51:27.900Z,4.60
2019-01-02T06:53:57.737Z,3.83
2019-01-02T06:56:27.917Z,4.80
2019-01-02T06:58:58.089Z,3.50
2019-01-02T07:01:28.217Z,5.70
2019-01-02T07:03:58.088Z,5.10
2019-01-02T07:06:27.936Z,2.93
2019-01-02T07:08:58.048Z,4.33
2019-01-02T07:11:27.909Z,4.30
2019-01-02T07:13:57.751Z,4.13
2019-01-02T07:16:27.575Z,3.87
2019-01-02T07:18:57.439Z,4.73
2019-01-02T07:21:27.262Z,4.53
2019-01-02T07:23:57.117Z,4.33
2019-01-02T07:26:27.246Z,4.47
2019-01-02T07:28:57.108Z,4.33
2019-01-02T07:31:26.942Z,3.10
2019-01-02T07:34:27.239Z,3.87
2019-01-02T07:38:00.457Z,5.07
2019-01-02T07:41:22.083Z,3.50
2019-01-02T07:44:28.528Z,3.93
2019-01-02T07:48:09.826Z,4.03
2019-01-02T07:51:47.101Z,3.33
2019-01-02T07:54:42.421Z,3.30
2019-01-02T07:58:01.494Z,3.50
2019-01-02T08:01:09.322Z,2.53
2019-01-02T08:04:14.954Z,2.77
2019-01-02T08:07:24.106Z,4.07
2019-01-02T08:10:30.844Z,3.17
2019-01-02T08:13:41.764Z,3.67
2019-01-02T08:16:53.919Z,2.97
2019-01-02T08:20:42.073Z,2.77
2019-01-02T08:27:46.054Z,3.50
2019-01-02T08:30:44.547Z,2.77
2019-01-02T08:34:09.815Z,2.87
2019-01-02T08:41:06.941Z,2.20
2019-01-02T08:44:50.939Z,2.73
2019-01-02T08:47:56.772Z,3.43
2019-01-02T08:51:45.267Z,2.60
2019-01-02T08:55:02.251Z,2.43
2019-01-02T08:58:33.264Z,2.07
2019-01-02T09:02:05.459Z,2.10
2019-01-02T09:05:29.449Z,2.33
2019-01-02T09:08:30.191Z,1.83
2019-01-02T09:11:51.463Z,3.17
2019-01-02T09:15:16.515Z,2.60
2019-01-02T09:18:55.564Z,2.33
2019-01-02T09:22:26.085Z,2.70
2019-01-02T09:26:03.592Z,2.20
2019-01-02T09:30:04.435Z,2.37
2019-01-02T09:33:45.013Z,2.87
2019-01-02T09:37:01.401Z,2.50
2019-01-02T09:40:14.951Z,2.17
2019-01-02T09:44:00.065Z,2.63
2019-01-02T09:47:30.291Z,2.13
2019-01-02T09:51:06.832Z,2.30
2019-01-02T09:54:34.952Z,2.70
2019-01-02T09:58:05.641Z,2.00
2019-01-02T10:01:28.698Z,2.00
2019-01-02T10:04:55.274Z,2.13
2019-01-02T10:08:21.176Z,2.60
2019-01-02T10:11:38.957Z,2.37
2019-01-02T10:14:51.015Z,4.30
2019-01-02T10:17:58.095Z,2.00
2019-01-02T10:21:49.088Z,2.50
2019-01-02T10:25:17.163Z,2.00
2019-01-02T10:28:22.707Z,1.93
2019-01-02T10:32:03.391Z,2.20
2019-01-02T10:34:56.520Z,1.70
2019-01-02T10:38:25.371Z,2.80
2019-01-02T10:41:55.043Z,2.03
2019-01-02T10:45:29.645Z,2.00
2019-01-02T10:48:27.747Z,2.40
2019-01-02T10:51:45.589Z,1.77
2019-01-02T10:54:46.553Z,1.87
2019-01-02T10:58:11.805Z,2.10
2019-01-02T11:01:33.259Z,1.90
2019-01-02T11:04:59.636Z,2.47
2019-01-02T11:07:58.425Z,1.27
2019-01-02T11:11:06.982Z,1.60
2019-01-02T11:14:31.442Z,1.80
2019-01-02T11:17:59.785Z,2.23
2019-01-02T11:21:16.790Z,2.13
2019-01-02T11:24:38.061Z,1.47
2019-01-02T11:27:54.040Z,1.90
2019-01-02T11:31:24.128Z,3.03
2019-01-02T11:34:29.436Z,1.73
2019-01-02T11:37:53.638Z,1.93
2019-01-02T11:40:56.553Z,2.40
2019-01-02T11:44:34.270Z,1.90
2019-01-02T11:47:04.158Z,1.13
2019-01-02T11:49:34.565Z,1.90
2019-01-02T11:52:05.753Z,2.13
2019-01-02T11:54:36.414Z,1.77
2019-01-02T11:57:07.420Z,1.80
2019-01-02T11:59:38.060Z,1.40
2019-01-02T12:02:07.316Z,1.90
2019-01-02T12:04:37.785Z,1.80
2019-01-02T12:07:09.518Z,1.37
2019-01-02T12:09:40.432Z,1.50
2019-01-02T12:12:11.232Z,1.40
2019-01-02T12:14:41.089Z,2.07
2019-01-02T12:17:11.138Z,1.80
2019-01-02T12:19:41.666Z,1.20
2019-01-02T12:22:11.772Z,1.70
2019-01-02T12:24:41.617Z,1.30
2019-01-02T12:27:12.004Z,1.30
2019-01-02T12:29:42.211Z,1.47
2019-01-02T12:32:12.370Z,2.10
2019-01-02T12:34:42.199Z,1.60
2019-01-02T12:37:12.074Z,1.50
2019-01-02T12:39:42.141Z,1.67
2019-01-02T12:42:12.131Z,1.00
2019-01-02T12:44:42.081Z,1.60
2019-01-02T12:47:11.950Z,1.20
2019-01-02T12:49:41.772Z,1.60
2019-01-02T12:52:11.949Z,1.00
2019-01-02T12:54:41.795Z,1.30
2019-01-02T12:57:11.672Z,1.50
2019-01-02T12:59:41.673Z,1.70
2019-01-02T13:03:05.481Z,1.30
2019-01-02T13:06:43.059Z,1.87
2019-01-02T13:10:22.663Z,1.07
2019-01-02T13:13:36.069Z,1.33
2019-01-02T13:16:43.558Z,2.03
2019-01-02T13:20:16.433Z,2.17
2019-01-02T13:23:41.138Z,2.40
2019-01-02T13:26:41.300Z,2.17
2019-01-02T13:29:44.142Z,2.20
2019-01-02T13:33:05.616Z,1.80
2019-01-02T13:36:31.262Z,1.80
2019-01-02T13:39:51.421Z,2.33
2019-01-02T13:42:48.009Z,2.60
2019-01-02T13:45:29.753Z,1.77
2019-01-02T13:49:15.175Z,2.30
2019-01-02T13:51:52.369Z,2.80
2019-01-02T13:54:23.313Z,2.57
2019-01-02T13:56:53.184Z,2.30
2019-01-02T13:59:23.607Z,2.70
2019-01-02T14:01:53.518Z,2.30
2019-01-02T14:04:23.642Z,2.00
2019-01-02T14:06:53.470Z,2.40
2019-01-02T14:09:23.458Z,2.20
2019-01-02T14:11:53.303Z,2.00
2019-01-02T14:14:23.157Z,2.07
2019-01-02T14:16:53.021Z,2.40
2019-01-02T14:19:22.922Z,2.17
2019-01-02T14:21:53.057Z,2.47
2019-01-02T14:24:22.921Z,2.30
2019-01-02T14:26:52.780Z,2.43
2019-01-02T14:29:22.624Z,2.10
2019-01-02T14:31:52.537Z,2.40
2019-01-02T14:34:22.480Z,2.00
2019-01-02T14:36:52.326Z,2.73
2019-01-02T14:39:22.177Z,2.33
2019-01-02T14:41:52.455Z,1.80
2019-01-02T14:44:22.288Z,2.70
2019-01-02T14:46:52.188Z,2.27
2019-01-02T14:49:22.008Z,2.07
2019-01-02T14:51:51.845Z,1.50
2019-01-02T14:54:22.011Z,2.70
2019-01-02T14:56:51.849Z,1.97
2019-01-02T14:59:21.703Z,2.10
2019-01-02T15:01:51.598Z,2.03
2019-01-02T15:04:21.518Z,1.77
2019-01-02T15:06:51.343Z,1.97
2019-01-02T15:09:21.226Z,2.20
2019-01-02T15:11:51.321Z,2.43
2019-01-02T15:14:21.164Z,1.50
2019-01-02T15:16:51.343Z,2.23
2019-01-02T15:19:21.208Z,1.63
2019-01-02T15:21:51.070Z,1.43
2019-01-02T15:24:20.892Z,1.37
2019-01-02T15:26:51.207Z,1.80
2019-01-02T15:29:21.149Z,1.67
2019-01-02T15:31:51.052Z,1.37
2019-01-02T15:34:20.928Z,1.90
2019-01-02T15:39:28.710Z,1.53
2019-01-02T15:43:08.196Z,1.60
2019-01-02T16:01:54.532Z,1.87
2019-01-02T16:04:24.718Z,1.13
2019-01-02T16:06:54.597Z,1.27
2019-01-02T16:09:24.803Z,1.40
2019-01-02T16:11:55.259Z,1.23
2019-01-02T16:14:25.602Z,1.93
2019-01-02T16:16:55.494Z,1.60
2019-01-02T16:19:25.369Z,2.00
2019-01-02T16:21:55.314Z,1.87
2019-01-02T16:24:27.364Z,1.53
2019-01-02T16:26:57.802Z,1.90
2019-01-02T16:29:27.862Z,1.63
2019-01-02T16:31:58.366Z,2.10
2019-01-02T16:34:28.580Z,2.23
2019-01-02T16:36:59.755Z,2.03
2019-01-02T16:39:30.228Z,1.63
2019-01-02T16:42:00.458Z,1.90
2019-01-02T16:44:31.609Z,2.40
2019-01-02T16:47:02.162Z,2.00
2019-01-02T16:49:33.136Z,2.23
2019-01-02T16:52:05.955Z,2.33
2019-01-02T16:54:35.860Z,1.80
2019-01-02T16:57:06.112Z,1.70
2019-01-02T16:59:35.960Z,1.70
2019-01-02T17:02:06.654Z,1.87
2019-01-02T17:04:37.155Z,2.07
2019-01-02T17:07:07.036Z,1.60
2019-01-02T17:09:36.957Z,1.60
2019-01-02T17:12:07.133Z,1.80
2019-01-02T17:14:56.606Z,1.80
2019-01-02T17:17:45.864Z,1.50
2019-01-02T17:20:35.578Z,1.53
2019-01-02T17:23:25.020Z,1.47
2019-01-02T17:26:14.219Z,1.77
2019-01-02T17:29:04.066Z,1.87
2019-01-02T17:31:46.223Z,2.00
2019-01-02T17:34:35.628Z,1.70
2019-01-02T17:37:25.085Z,1.67
2019-01-02T17:40:14.687Z,1.80
2019-01-02T17:43:03.850Z,2.20
2019-01-02T17:45:53.019Z,2.03
2019-01-02T17:48:42.194Z,1.70
2019-01-02T17:51:31.655Z,2.17
2019-01-02T17:54:21.802Z,1.70
2019-01-02T17:57:11.341Z,2.70
2019-01-02T18:00:00.793Z,2.07
2019-01-02T18:02:49.933Z,2.03
2019-01-02T18:05:39.426Z,1.93
2019-01-02T18:08:28.905Z,2.33
2019-01-02T18:11:18.371Z,2.03
2019-01-02T18:14:27.246Z,1.63
2019-01-02T18:17:16.772Z,2.40
2019-01-02T18:20:07.677Z,1.50
2019-01-02T18:22:56.821Z,2.10
2019-01-02T18:25:45.939Z,2.97
2019-01-02T18:28:35.384Z,2.00
2019-01-02T18:31:24.501Z,2.90
2019-01-02T18:34:06.711Z,2.87
2019-01-02T18:36:56.156Z,2.20
2019-01-02T18:39:45.235Z,3.60
2019-01-02T18:42:34.966Z,2.97
2019-01-02T18:45:43.581Z,2.20
2019-01-02T18:48:33.480Z,1.80
2019-01-02T18:51:22.975Z,3.03
2019-01-02T18:54:12.444Z,1.83
2019-01-02T18:57:01.544Z,2.50
2019-01-02T18:59:51.074Z,1.80
2019-01-02T19:02:59.745Z,2.20
2019-01-02T19:05:48.900Z,2.10
2019-01-02T19:08:38.041Z,2.03
2019-01-02T19:11:46.486Z,2.10
2019-01-02T19:14:35.943Z,2.00
2019-01-02T19:17:25.694Z,2.17
2019-01-02T19:20:15.470Z,2.53
2019-01-02T19:23:04.586Z,1.23
2019-01-02T19:25:53.957Z,1.93
2019-01-02T19:29:00.415Z,2.50
2019-01-02T19:34:54.308Z,2.23
2019-01-02T19:37:24.859Z,2.30
2019-01-02T19:39:55.028Z,2.30
2019-01-02T19:42:25.061Z,1.97
2019-01-02T19:44:58.072Z,2.00
2019-01-02T19:47:28.415Z,1.73
2019-01-02T19:49:58.656Z,2.00
2019-01-02T19:52:28.614Z,2.30
2019-01-02T19:54:58.572Z,1.77
2019-01-02T19:57:29.160Z,1.53
2019-01-02T19:59:59.072Z,2.20
2019-01-02T20:02:29.337Z,1.63
2019-01-02T20:05:11.554Z,2.27
2019-01-02T20:07:41.835Z,1.53
2019-01-02T20:10:13.884Z,1.50
2019-01-02T20:12:43.812Z,1.90
2019-01-02T20:15:14.519Z,1.67
2019-01-02T20:17:44.493Z,1.83
2019-01-02T20:20:15.414Z,1.63
2019-01-02T20:23:12.883Z,1.80
2019-01-02T20:25:43.123Z,1.60
2019-01-02T20:28:13.307Z,1.90
2019-01-02T20:30:43.690Z,2.03
2019-01-02T20:33:14.551Z,1.77
2019-01-02T20:35:44.484Z,1.60
2019-01-02T20:38:15.197Z,1.73
2019-01-02T20:40:45.850Z,3.53
2019-01-02T20:43:15.978Z,3.60
2019-01-02T20:45:45.919Z,1.97
2019-01-02T20:48:16.267Z,1.83
2019-01-02T20:54:34.479Z,1.60
2019-01-02T20:57:04.815Z,1.60
2019-01-02T21:07:23.578Z,1.57
2019-01-02T21:09:54.574Z,2.03
2019-01-02T21:12:24.503Z,1.67
2019-01-02T21:14:54.554Z,1.30
2019-01-02T21:17:24.522Z,1.70
2019-01-02T21:19:54.484Z,2.37
2019-01-02T21:22:24.754Z,2.50
2019-01-02T21:24:55.092Z,2.17
2019-01-02T21:27:25.939Z,1.80
2019-01-02T21:29:55.932Z,2.87
2019-01-02T21:32:26.151Z,2.20
2019-01-02T21:34:56.515Z,2.60
2019-01-02T21:37:27.241Z,1.43
2019-01-02T21:39:57.515Z,1.57
2019-01-02T21:42:27.716Z,1.53
2019-01-02T21:45:03.613Z,1.60
2019-01-02T21:47:36.659Z,2.20
2019-01-02T21:50:07.597Z,2.20
2019-01-02T21:52:37.572Z,1.80
2019-01-02T21:55:08.014Z,1.63
2019-01-02T21:57:38.008Z,2.10
2019-01-02T22:00:12.714Z,1.40
2019-01-02T22:02:44.734Z,2.67
2019-01-02T22:05:16.224Z,2.30
2019-01-02T22:07:52.377Z,2.47
2019-01-02T22:10:23.814Z,1.40
2019-01-02T22:12:54.729Z,1.30
2019-01-02T22:15:24.609Z,1.53
2019-01-02T22:17:56.127Z,2.23
2019-01-02T22:20:27.754Z,1.83
2019-01-02T22:22:58.035Z,1.60
2019-01-02T22:25:28.205Z,1.70
2019-01-02T22:27:58.444Z,1.40
2019-01-02T22:30:28.452Z,1.40
2019-01-02T22:32:58.275Z,1.80
2019-01-02T22:35:35.694Z,1.30
2019-01-02T22:38:05.846Z,1.43
2019-01-02T22:40:36.224Z,2.40
2019-01-02T22:43:09.577Z,1.40
2019-01-02T22:45:40.263Z,2.00
2019-01-02T22:48:10.751Z,1.93
2019-01-02T22:50:40.893Z,1.57
2019-01-02T22:53:11.406Z,1.50
2019-01-02T22:55:42.322Z,1.50
2019-01-02T22:58:15.669Z,1.60
2019-01-02T23:01:06.768Z,2.47
2019-01-02T23:04:04.977Z,1.30
2019-01-02T23:07:03.653Z,1.40
2019-01-02T23:09:59.528Z,1.10
2019-01-02T23:12:49.507Z,1.10
2019-01-02T23:15:39.638Z,1.37
2019-01-02T23:18:27.154Z,1.50
2019-01-02T23:21:15.154Z,1.60
2019-01-02T23:24:20.506Z,1.40
2019-01-02T23:27:16.466Z,1.10
2019-01-02T23:30:11.509Z,1.23
2019-01-02T23:32:59.486Z,1.40
2019-01-02T23:36:00.577Z,1.10
2019-01-02T23:38:49.300Z,1.37
2019-01-02T23:41:36.906Z,1.70
2019-01-02T23:44:29.561Z,1.87
2019-01-02T23:47:26.940Z,2.40
2019-01-02T23:50:22.686Z,1.93
2019-01-02T23:53:18.119Z,1.27
2019-01-02T23:56:13.100Z,1.60
2019-01-02T23:59:17.328Z,1.43
